You are not logged in, Click here to log in
香港國際機場HKG / VHHH 香港翔天路1號
ICAO: VHHH Country: 香港翔天路1號
Latitude: 22.308 Longitude: 113.918
Total Arrivals: 638 Total Departures: 685
Latest Arrival: BR851 (RCTP-VHHH)CHU. CHUHAO Latest Departure: CI938 (VHHH-RCKH)Ivan. Lee
Scenery: http://www.qtc-hk.com/wp-content/uploads/2013/12/20110405092437553.jpg
METAR : VHHH 261300Z 08007KT CAVOK 24/18 Q1018 NOSIG

香港國際機場HKG